Time;durP1;ratioP1;P1;durP2;ratioP2;P2;SDS_P1;SDS_P2;PMS_P1;PMS_P2;Temp;Humidity;BMP_temperature;BMP_pressure;BME280_temperature;BME280_humidity;BME280_pressure;Samples;Min_cycle;Max_cycle;Signal;HPM_P1;HPM_P2
2021/12/16 00:05:50;;;;;;;;;55.75;46.00;;;;;10.46;69.77;103279.09;5070901;28;49587;-75
2021/12/16 00:08:19;;;;;;;;;52.25;40.25;;;;;10.94;70.35;103369.59;5069540;28;49762;-76
2021/12/16 00:10:58;;;;;;;;;58.25;44.75;;;;;10.96;69.77;103372.31;5070760;28;49718;-74
2021/12/16 00:35:01;;;;;;;;;59.50;48.25;;;;;10.82;69.82;103358.34;5070313;28;49796;-74
2021/12/16 00:37:28;;;;;;;;;54.00;46.50;;;;;10.85;69.55;103363.78;5070697;28;49860;-73
2021/12/16 00:39:54;;;;;;;;;56.50;44.25;;;;;10.88;69.41;103361.31;5070749;28;51392;-73
2021/12/16 00:42:38;;;;;;;;;57.50;46.75;;;;;10.77;70.18;103338.75;5070103;28;49635;-76
2021/12/16 00:45:33;;;;;;;;;62.25;49.25;;;;;10.93;69.61;103365.16;5070357;28;49779;-67
2021/12/16 00:48:03;;;;;;;;;59.00;46.00;;;;;10.89;69.75;103369.28;5071241;28;49906;-66
2021/12/16 00:55:52;;;;;;;;;54.75;45.50;;;;;10.68;69.71;103314.53;5036188;28;50013;-80
2021/12/16 00:58:23;;;;;;;;;53.50;44.25;;;;;10.93;69.95;103352.03;5035863;28;49855;-73
2021/12/16 01:00:58;;;;;;;;;53.50;43.75;;;;;10.94;70.27;103345.94;5050332;28;49935;-72
2021/12/16 01:03:38;;;;;;;;;51.75;44.50;;;;;10.06;70.05;103210.06;5038695;28;49747;-71
2021/12/16 01:34:11;;;;;;;;;44.75;39.75;;;;;10.88;69.44;103354.34;5053316;28;50124;-71
2021/12/16 01:47:50;;;;;;;;;54.50;44.25;;;;;10.92;69.27;103355.47;5050781;28;49865;-70
2021/12/16 01:50:26;;;;;;;;;56.25;46.00;;;;;10.84;69.17;103352.34;5051537;28;49665;-73
2021/12/16 01:55:30;;;;;;;;;55.50;44.75;;;;;10.87;69.96;103367.41;5051613;28;49774;-74
2021/12/16 01:58:09;;;;;;;;;51.75;44.25;;;;;10.89;70.17;103355.25;5046476;28;49794;-72
2021/12/16 02:00:53;;;;;;;;;51.50;42.50;;;;;10.90;69.70;103359.69;5032763;28;49802;-74
2021/12/16 02:03:26;;;;;;;;;57.75;47.00;;;;;10.93;69.38;103374.75;5032544;28;49593;-75
2021/12/16 02:06:03;;;;;;;;;56.50;45.25;;;;;10.86;70.18;103360.34;5031472;28;49749;-75
2021/12/16 02:08:34;;;;;;;;;53.50;42.00;;;;;10.87;69.29;103370.94;5031137;28;49744;-71
2021/12/16 02:37:34;;;;;;;;;57.75;45.25;;;;;10.96;69.83;103380.19;5031624;28;50024;-75
2021/12/16 02:40:02;;;;;;;;;52.50;44.00;;;;;10.93;70.00;103370.41;5013851;28;49759;-75
2021/12/16 02:42:38;;;;;;;;;54.25;46.25;;;;;10.94;69.18;103372.22;5030812;28;49869;-74
2021/12/16 02:50:23;;;;;;;;;54.25;45.50;;;;;10.93;69.87;103377.38;5030880;28;49932;-71
2021/12/16 02:52:49;;;;;;;;;50.00;41.25;;;;;10.57;69.97;103314.78;5031846;28;50040;-75
2021/12/16 02:55:17;;;;;;;;;53.50;45.25;;;;;10.69;69.67;103332.13;5030294;28;49733;-76
2021/12/16 02:58:01;;;;;;;;;58.25;46.00;;;;;10.80;70.05;103357.31;5031182;28;50431;-75
2021/12/16 03:00:31;;;;;;;;;53.75;43.50;;;;;10.88;70.29;103362.22;5030521;28;49754;-75
2021/12/16 03:02:57;;;;;;;;;54.50;46.00;;;;;10.88;69.36;103359.59;5030813;28;49871;-76
2021/12/16 03:05:23;;;;;;;;;63.50;50.00;;;;;10.75;69.55;103346.53;5030365;28;49815;-77
2021/12/16 03:07:50;;;;;;;;;57.00;47.50;;;;;10.77;69.53;103342.28;5030979;28;50648;-78
2021/12/16 03:13:05;;;;;;;;;30.00;27.25;;;;;10.94;69.71;103376.56;5030740;28;49773;-72
2021/12/16 03:18:28;;;;;;;;;58.00;47.75;;;;;10.94;69.83;103387.09;5031106;28;50347;-76
2021/12/16 03:21:02;;;;;;;;;53.00;43.50;;;;;10.93;69.42;103382.66;5031118;28;49804;-75
2021/12/16 03:34:21;;;;;;;;;56.75;45.75;;;;;10.95;69.62;103381.91;5030837;28;49948;-77
2021/12/16 03:39:10;;;;;;;;;53.75;44.00;;;;;10.95;70.22;103379.28;5030780;28;50310;-70
2021/12/16 03:41:37;;;;;;;;;53.75;45.25;;;;;10.86;70.19;103373.47;5029776;28;49758;-70
2021/12/16 03:44:09;;;;;;;;;55.00;47.00;;;;;10.87;69.37;103372.66;5030321;28;49681;-70
2021/12/16 03:46:39;;;;;;;;;59.75;47.25;;;;;10.72;69.56;103340.22;5029443;28;49718;-70
2021/12/16 03:49:17;;;;;;;;;56.00;45.25;;;;;10.95;69.90;103373.13;5030461;28;49833;-70
2021/12/16 03:51:55;;;;;;;;;46.50;39.75;;;;;10.95;70.41;103370.50;5029421;28;49760;-76
2021/12/16 03:54:33;;;;;;;;;51.75;45.00;;;;;10.95;69.86;103373.13;5030287;28;49875;-75
2021/12/16 03:57:03;;;;;;;;;60.25;48.50;;;;;10.90;70.36;103367.56;5029958;28;49886;-73
2021/12/16 03:59:31;;;;;;;;;55.75;44.50;;;;;10.75;69.95;103338.66;5029224;28;49674;-69
2021/12/16 04:02:00;;;;;;;;;54.25;44.75;;;;;10.80;70.10;103354.69;5030169;28;49973;-70
2021/12/16 04:04:25;;;;;;;;;57.25;46.00;;;;;10.97;70.16;103379.38;5029907;28;49681;-70
2021/12/16 04:06:50;;;;;;;;;50.50;41.75;;;;;10.97;70.61;103388.16;5029411;28;49903;-70
2021/12/16 04:09:17;;;;;;;;;56.75;45.00;;;;;10.97;70.42;103388.16;5030147;28;50343;-70
2021/12/16 04:11:51;;;;;;;;;53.75;41.75;;;;;10.87;69.97;103370.94;5029929;28;49504;-70
2021/12/16 04:14:17;;;;;;;;;56.00;45.75;;;;;10.98;70.57;103384.72;5030025;28;49697;-70
2021/12/16 04:16:54;;;;;;;;;47.50;39.25;;;;;10.97;70.67;103382.00;5030531;28;50051;-70
2021/12/16 04:19:26;;;;;;;;;51.75;42.00;;;;;10.97;70.69;103384.63;5029432;28;50523;-70
2021/12/16 04:21:59;;;;;;;;;50.75;44.25;;;;;10.98;70.36;103384.72;5012490;28;49654;-70
2021/12/16 04:24:24;;;;;;;;;52.00;44.50;;;;;10.98;70.41;103382.09;5030637;28;49519;-70
2021/12/16 04:26:52;;;;;;;;;56.00;46.50;;;;;10.77;69.98;103349.25;5030457;28;49739;-69
2021/12/16 04:29:18;;;;;;;;;55.50;44.25;;;;;10.97;70.03;103387.25;5029011;28;51384;-71
2021/12/16 04:31:45;;;;;;;;;53.25;44.50;;;;;10.97;70.67;103384.63;5030242;28;49914;-70
2021/12/16 04:34:10;;;;;;;;;56.50;45.25;;;;;10.99;70.89;103390.88;5029640;28;50013;-70
2021/12/16 04:36:37;;;;;;;;;56.25;44.75;;;;;10.99;70.52;103394.41;5029766;28;49747;-70
2021/12/16 04:39:10;;;;;;;;;52.75;43.00;;;;;10.95;70.07;103389.81;5028787;28;49786;-71
2021/12/16 04:41:37;;;;;;;;;58.50;49.25;;;;;10.94;70.05;103393.25;5030712;28;49678;-75
2021/12/16 04:44:10;;;;;;;;;52.50;42.00;;;;;10.94;69.87;103390.63;5030898;28;49705;-77
2021/12/16 04:46:36;;;;;;;;;59.00;47.25;;;;;10.84;70.08;103383.00;5030405;28;49749;-76
2021/12/16 04:49:04;;;;;;;;;59.00;45.50;;;;;10.95;70.52;103394.16;5029937;28;50403;-75
2021/12/16 04:51:33;;;;;;;;;61.50;48.75;;;;;10.82;70.08;103382.00;5030200;28;49773;-73
2021/12/16 04:53:59;;;;;;;;;56.75;46.50;;;;;10.98;69.88;103400.50;5032955;28;49578;-75
2021/12/16 04:56:26;;;;;;;;;53.75;44.50;;;;;10.97;69.96;103400.41;5033361;28;49948;-73
2021/12/16 04:58:53;;;;;;;;;61.25;50.75;;;;;10.95;70.02;103400.31;5032348;28;49819;-76
2021/12/16 05:01:19;;;;;;;;;56.50;46.25;;;;;10.84;70.51;103394.41;5032804;28;49780;-71
2021/12/16 05:03:45;;;;;;;;;57.25;46.50;;;;;10.94;69.75;103406.38;5031721;28;49654;-76
2021/12/16 05:06:10;;;;;;;;;59.50;48.75;;;;;10.78;69.67;103391.38;5033746;28;49734;-71
2021/12/16 05:08:37;;;;;;;;;59.25;48.75;;;;;10.91;70.09;103405.31;5015151;28;51388;-70
2021/12/16 05:11:05;;;;;;;;;60.25;47.75;;;;;10.84;70.63;103388.25;5033172;28;49801;-71
2021/12/16 05:13:33;;;;;;;;;55.50;46.25;;;;;10.79;70.41;103380.06;5015476;28;49815;-70
2021/12/16 05:16:02;;;;;;;;;55.75;44.00;;;;;10.96;70.18;103412.66;5033315;28;50011;-74
2021/12/16 05:18:34;;;;;;;;;58.75;47.25;;;;;10.75;69.76;103378.06;5032250;28;49749;-76
2021/12/16 05:24:15;;;;;;;;;62.50;50.50;;;;;10.75;70.15;103385.94;5032097;28;49677;-74
2021/12/16 05:24:25;;;;;;;;;52.50;43.75;;;;;10.54;70.44;103337.34;5020367;28;49837;-74
2021/12/16 05:26:55;;;;;;;;;58.75;49.00;;;;;10.96;70.45;103411.72;5032952;28;49976;-74
2021/12/16 05:29:20;;;;;;;;;61.00;48.25;;;;;10.96;70.04;103415.28;5031917;28;49756;-72
2021/12/16 05:31:46;;;;;;;;;64.75;49.50;;;;;10.84;70.18;103398.75;5033129;28;49932;-75
2021/12/16 05:34:11;;;;;;;;;55.75;46.25;;;;;10.89;70.50;103410.44;5032959;28;50069;-73
2021/12/16 05:36:37;;;;;;;;;57.75;46.25;;;;;10.81;70.65;103394.22;5033093;28;49827;-71
2021/12/16 05:39:04;;;;;;;;;55.75;47.00;;;;;10.95;70.16;103417.81;5032391;28;49788;-70
2021/12/16 05:41:30;;;;;;;;;55.25;46.50;;;;;10.95;70.42;103423.06;5031703;28;49924;-71
2021/12/16 05:43:56;;;;;;;;;54.50;46.00;;;;;10.88;70.54;103420.03;5031962;28;49613;-70
2021/12/16 05:46:24;;;;;;;;;54.25;45.50;;;;;10.96;70.23;103435.38;5032799;28;50027;-70
2021/12/16 05:48:52;;;;;;;;;61.25;49.75;;;;;10.98;69.81;103437.28;5032391;28;49723;-69
2021/12/16 05:51:21;;;;;;;;;54.00;44.00;;;;;10.92;70.35;103428.16;5032697;28;49684;-70
2021/12/16 05:53:50;;;;;;;;;50.25;42.75;;;;;10.84;70.29;103414.53;5032772;28;49996;-72
2021/12/16 05:56:16;;;;;;;;;53.00;43.00;;;;;10.97;70.67;103435.47;5031397;28;49973;-70
2021/12/16 05:58:42;;;;;;;;;53.50;43.75;;;;;10.98;70.28;103439.91;5033481;28;50595;-69
2021/12/16 06:01:19;;;;;;;;;56.75;46.00;;;;;10.96;70.20;103436.28;5043335;28;49676;-70
2021/12/16 06:03:46;;;;;;;;;56.25;46.00;;;;;10.93;70.65;103435.22;5031655;28;49910;-70
2021/12/16 06:06:12;;;;;;;;;56.00;44.50;;;;;10.86;70.04;103424.31;5033080;28;49860;-70
2021/12/16 06:08:38;;;;;;;;;47.25;41.25;;;;;10.91;70.21;103437.75;5031290;28;49672;-70
2021/12/16 06:13:35;;;;;;;;;55.50;44.25;;;;;10.78;70.66;103424.63;5033339;28;49836;-70
2021/12/16 06:22:26;;;;;;;;;54.50;44.25;;;;;10.97;70.20;103451.25;5020371;28;49640;-71
2021/12/16 06:29:23;;;;;;;;;57.50;46.25;;;;;10.92;70.70;103442.19;5051980;28;50375;-66
2021/12/16 06:31:49;;;;;;;;;57.50;45.25;;;;;11.00;70.42;103445.25;5032658;28;49806;-63
2021/12/16 06:34:15;;;;;;;;;50.50;42.50;;;;;10.97;70.58;103445.09;5034091;28;49809;-68
2021/12/16 06:36:41;;;;;;;;;55.00;45.00;;;;;10.97;70.23;103448.63;5045832;28;50274;-62
2021/12/16 06:39:06;;;;;;;;;59.25;47.25;;;;;10.99;70.64;103446.09;5043622;28;49692;-62
2021/12/16 06:41:35;;;;;;;;;47.00;41.25;;;;;11.00;70.92;103446.22;5051276;28;49645;-61
2021/12/16 06:44:15;;;;;;;;;57.75;44.75;;;;;11.00;70.39;103450.53;5051636;28;49863;-62
2021/12/16 06:46:43;;;;;;;;;51.75;44.00;;;;;11.02;70.55;103448.94;5059119;28;49723;-61
2021/12/16 06:49:11;;;;;;;;;52.00;42.00;;;;;10.81;70.72;103415.25;5051771;28;50045;-62
2021/12/16 06:51:59;;;;;;;;;55.00;45.50;;;;;10.94;70.15;103443.19;5052044;28;49827;-62
2021/12/16 06:54:37;;;;;;;;;51.50;43.25;;;;;10.98;70.37;103455.69;5052863;28;49788;-65
2021/12/16 06:59:34;;;;;;;;;56.75;45.25;;;;;10.96;70.25;103465.22;5063393;28;49715;-70
2021/12/16 07:04:34;;;;;;;;;57.50;47.00;;;;;10.74;70.24;103423.56;5062390;28;50049;-71
2021/12/16 07:07:00;;;;;;;;;54.25;45.50;;;;;11.01;70.82;103468.13;5065416;28;49314;-73
2021/12/16 07:09:26;;;;;;;;;54.25;45.75;;;;;10.94;70.33;103452.78;5059240;28;49939;-73
2021/12/16 07:11:56;;;;;;;;;56.50;47.00;;;;;10.46;70.67;103368.38;5062148;28;49665;-75
2021/12/16 07:14:34;;;;;;;;;56.50;45.50;;;;;10.99;70.54;103481.16;5062800;28;49653;-72
2021/12/16 07:17:00;;;;;;;;;55.75;43.25;;;;;10.67;70.69;103417.81;5054511;28;49954;-76
2021/12/16 07:19:26;;;;;;;;;57.50;48.00;;;;;10.89;70.70;103455.13;5058378;28;49778;-68
2021/12/16 07:21:51;;;;;;;;;55.75;46.75;;;;;10.59;70.68;103394.59;5071761;28;49879;-79
2021/12/16 07:24:19;;;;;;;;;57.50;46.50;;;;;10.80;70.59;103437.06;5055347;28;49602;-84
2021/12/16 07:26:45;;;;;;;;;56.25;46.50;;;;;11.05;70.54;103478.00;5072246;28;49995;-71
2021/12/16 07:29:11;;;;;;;;;55.00;45.25;;;;;10.97;70.36;103455.59;5071402;28;49728;-71
2021/12/16 07:31:38;;;;;;;;;55.25;45.25;;;;;11.07;70.73;103477.28;5071593;28;49628;-74
2021/12/16 07:34:05;;;;;;;;;56.00;46.00;;;;;10.92;70.41;103449.16;5071828;28;49904;-72
2021/12/16 07:36:33;;;;;;;;;59.50;48.25;;;;;11.09;70.55;103480.00;5071710;28;49619;-69
2021/12/16 07:38:59;;;;;;;;;52.50;44.00;;;;;11.04;70.53;103474.47;5069268;28;50364;-66
2021/12/16 07:41:31;;;;;;;;;39.50;34.25;;;;;11.09;70.99;103477.38;5069509;28;50320;-65
2021/12/16 07:44:09;;;;;;;;;54.75;45.25;;;;;11.09;70.19;103470.41;5069450;28;49927;-68
2021/12/16 07:46:36;;;;;;;;;56.75;47.00;;;;;11.11;70.33;103481.03;5068182;28;50658;-67
2021/12/16 07:49:04;;;;;;;;;51.75;44.50;;;;;11.12;70.85;103489.00;5049187;28;49761;-66
2021/12/16 07:51:30;;;;;;;;;43.25;36.50;;;;;10.96;70.93;103451.16;5049552;28;49869;-66
2021/12/16 07:53:56;;;;;;;;;57.00;45.75;;;;;11.14;70.71;103489.09;5050854;28;49692;-66
2021/12/16 07:56:22;;;;;;;;;53.75;44.25;;;;;11.14;70.71;103481.22;5050746;28;49744;-66
2021/12/16 07:58:47;;;;;;;;;54.25;44.25;;;;;11.14;70.12;103487.38;5050909;28;50354;-65
2021/12/16 08:01:12;;;;;;;;;56.75;46.50;;;;;11.07;70.61;103479.91;5048658;28;49627;-66
2021/12/16 08:03:38;;;;;;;;;56.25;46.25;;;;;11.03;70.71;103480.56;5050935;28;49749;-66
2021/12/16 08:06:09;;;;;;;;;55.50;46.50;;;;;11.03;70.01;103485.81;5050949;28;50131;-66
2021/12/16 08:08:36;;;;;;;;;52.50;44.75;;;;;11.17;70.26;103489.28;5050503;28;50541;-67
2021/12/16 08:11:01;;;;;;;;;57.50;46.75;;;;;11.18;70.45;103499.88;5050503;28;49564;-67
2021/12/16 08:13:27;;;;;;;;;58.25;48.75;;;;;11.09;71.00;103485.25;5050805;28;49593;-66
2021/12/16 08:15:52;;;;;;;;;56.00;46.25;;;;;11.21;70.21;103514.06;5050700;28;49633;-68
2021/12/16 08:18:18;;;;;;;;;54.25;44.25;;;;;11.22;70.16;103510.63;5050515;28;49651;-67
2021/12/16 08:20:43;;;;;;;;;58.75;49.75;;;;;11.23;70.15;103505.44;5050399;28;50094;-68
2021/12/16 08:23:09;;;;;;;;;53.75;44.75;;;;;11.14;70.38;103490.00;5050550;28;49711;-74
2021/12/16 08:25:36;;;;;;;;;63.00;49.00;;;;;11.25;69.77;103506.44;5050510;28;49845;-67
2021/12/16 08:28:04;;;;;;;;;60.50;46.25;;;;;10.80;70.16;103420.38;5048051;28;49739;-73
2021/12/16 08:30:34;;;;;;;;;56.00;46.50;;;;;11.29;70.04;103504.91;5047704;28;49940;-80
2021/12/16 08:33:04;;;;;;;;;60.25;49.25;;;;;11.32;70.11;103515.63;5034389;28;50042;-72
2021/12/16 08:35:31;;;;;;;;;59.50;48.25;;;;;11.21;70.25;103486.03;5049592;28;50490;-73
2021/12/16 08:37:57;;;;;;;;;58.00;47.50;;;;;10.85;69.92;103421.59;5049846;28;49857;-76
2021/12/16 08:40:24;;;;;;;;;62.25;52.00;;;;;11.26;70.33;103481.97;5048965;28;49687;-77
2021/12/16 08:42:50;;;;;;;;;58.25;48.25;;;;;11.38;69.74;103516.88;5050106;28;49719;-73
2021/12/16 08:45:24;;;;;;;;;62.75;50.00;;;;;11.40;69.63;103517.91;5032249;28;49721;-77
2021/12/16 08:47:50;;;;;;;;;57.50;47.75;;;;;11.34;69.46;103503.47;5052545;28;51494;-76
2021/12/16 08:50:18;;;;;;;;;57.50;48.75;;;;;11.41;69.34;103513.56;5049054;28;50004;-76
2021/12/16 08:52:44;;;;;;;;;54.00;45.75;;;;;11.29;69.65;103489.13;5032260;28;50280;-76
2021/12/16 08:55:11;;;;;;;;;61.00;49.50;;;;;11.34;69.99;103490.31;5050271;28;49864;-77
2021/12/16 08:57:37;;;;;;;;;55.75;44.00;;;;;11.54;69.59;103520.47;5049338;28;50516;-77
2021/12/16 09:00:08;;;;;;;;;56.50;46.50;;;;;11.42;69.72;103496.97;5047817;28;50029;-77
2021/12/16 09:02:34;;;;;;;;;61.00;49.75;;;;;11.32;69.49;103471.81;5048028;28;49968;-76
2021/12/16 09:04:59;;;;;;;;;65.25;51.00;;;;;11.49;69.40;103500.88;5048148;28;49771;-77
2021/12/16 09:07:25;;;;;;;;;61.75;48.50;;;;;11.64;69.50;103530.72;5047789;28;49937;-76
2021/12/16 09:09:50;;;;;;;;;54.75;47.00;;;;;11.65;69.54;103530.81;5048338;28;49703;-73
2021/12/16 09:14:59;;;;;;;;;65.25;51.75;;;;;11.66;68.79;103522.09;5049798;28;50023;-72
2021/12/16 09:17:25;;;;;;;;;62.50;49.50;;;;;11.66;69.68;103521.19;5049753;28;50503;-72
2021/12/16 09:19:53;;;;;;;;;59.25;47.00;;;;;11.81;69.20;103544.94;5049811;28;49593;-72
2021/12/16 09:22:21;;;;;;;;;65.50;52.75;;;;;11.81;69.00;103540.59;5049638;28;49962;-72
2021/12/16 09:24:48;;;;;;;;;66.25;52.00;;;;;11.84;69.04;103542.50;5049984;28;50014;-73
2021/12/16 09:27:15;;;;;;;;;61.50;51.75;;;;;11.85;68.61;103542.56;5049274;28;51291;-74
2021/12/16 09:29:42;;;;;;;;;64.50;51.75;;;;;11.84;68.88;103534.59;5049734;28;49713;-73
2021/12/16 09:32:07;;;;;;;;;62.75;50.50;;;;;11.85;68.48;103544.31;5049816;28;49855;-72
2021/12/16 09:34:35;;;;;;;;;64.75;52.75;;;;;11.91;68.84;103552.56;5049810;28;49757;-71
2021/12/16 09:37:00;;;;;;;;;63.25;51.75;;;;;11.95;68.67;103555.47;5049394;28;50740;-71
2021/12/16 09:39:27;;;;;;;;;63.75;52.25;;;;;11.99;68.77;103552.22;5051600;28;50081;-71
2021/12/16 09:41:55;;;;;;;;;63.75;51.50;;;;;12.00;68.69;103564.56;5052669;28;49758;-71
2021/12/16 09:44:22;;;;;;;;;68.25;53.50;;;;;11.96;68.44;103556.38;5053103;28;50142;-71
2021/12/16 09:46:49;;;;;;;;;61.25;48.75;;;;;12.05;68.26;103570.09;5052849;28;50620;-70
2021/12/16 09:49:17;;;;;;;;;61.00;51.00;;;;;11.81;68.36;103522.16;5054314;28;49703;-70
2021/12/16 09:51:45;;;;;;;;;63.00;52.25;;;;;11.61;68.41;103502.53;5028907;28;49852;-70
2021/12/16 09:54:16;;;;;;;;;72.00;52.50;;;;;12.02;68.30;103547.13;5052634;28;50052;-70
2021/12/16 09:56:45;;;;;;;;;71.00;56.00;;;;;11.64;67.72;103484.28;5052985;28;49863;-69
2021/12/16 09:59:13;;;;;;;;;65.25;50.25;;;;;11.82;67.79;103507.28;5052580;28;50035;-70
2021/12/16 10:01:40;;;;;;;;;64.50;51.75;;;;;11.05;68.12;103405.31;5061135;28;49774;-71
2021/12/16 10:04:08;;;;;;;;;66.50;54.50;;;;;11.56;68.23;103448.69;5041963;28;50069;-71
2021/12/16 10:06:37;;;;;;;;;65.50;53.50;;;;;11.68;67.59;103494.19;5055114;28;52227;-71
2021/12/16 10:09:05;;;;;;;;;64.75;50.75;;;;;11.28;68.42;103405.78;5036620;28;50392;-70
2021/12/16 10:11:33;;;;;;;;;64.75;52.50;;;;;12.28;67.51;103555.66;5047759;28;49877;-71
2021/12/16 10:19:35;;;;;;;;;65.00;52.50;;;;;11.49;67.70;103414.97;5009677;28;49777;-70
2021/12/16 10:22:17;;;;;;;;;69.50;54.75;;;;;12.50;67.90;103573.59;4990789;28;49886;-70
2021/12/16 10:24:43;;;;;;;;;63.50;51.50;;;;;12.01;67.90;103479.50;5024956;28;49892;-71
2021/12/16 10:27:12;;;;;;;;;61.25;50.50;;;;;11.88;67.10;103479.59;5031905;28;52010;-70
2021/12/16 10:29:42;;;;;;;;;66.25;53.75;;;;;11.69;66.81;103422.31;5020563;28;49785;-71
2021/12/16 10:32:45;;;;;;;;;68.50;52.75;;;;;12.44;67.18;103553.06;5049812;28;50075;-71
2021/12/16 10:35:12;;;;;;;;;69.25;53.25;;;;;12.60;66.87;103602.31;5052171;28;49828;-72
2021/12/16 10:37:44;;;;;;;;;64.50;51.25;;;;;12.24;66.88;103528.22;5051895;28;49831;-71
2021/12/16 10:40:37;;;;;;;;;70.00;56.00;;;;;11.24;67.07;103349.50;5051237;28;49990;-75
2021/12/16 10:43:07;;;;;;;;;64.25;51.50;;;;;11.32;66.70;103369.25;5031832;28;49898;-71
2021/12/16 10:45:35;;;;;;;;;67.25;53.50;;;;;12.70;66.40;103578.28;5031998;28;49773;-71
2021/12/16 10:48:11;;;;;;;;;69.00;54.50;;;;;12.76;66.89;103576.00;5036125;28;50924;-71
2021/12/16 10:50:55;;;;;;;;;63.50;52.50;;;;;12.16;66.33;103468.00;5050733;28;50013;-71
2021/12/16 10:53:52;;;;;;;;;59.50;49.25;;;;;12.85;65.75;103572.97;5049397;28;49803;-71
2021/12/16 10:56:22;;;;;;;;;64.25;51.25;;;;;12.58;65.88;103509.06;5031869;28;50005;-72
2021/12/16 10:58:50;;;;;;;;;67.50;52.50;;;;;12.95;65.36;103566.50;5044449;28;49732;-71
2021/12/16 11:01:37;;;;;;;;;64.25;51.75;;;;;12.98;65.18;103564.94;5051056;28;49815;-72
2021/12/16 11:04:13;;;;;;;;;69.75;53.50;;;;;12.58;64.59;103486.28;5051704;28;49853;-71
2021/12/16 11:06:44;;;;;;;;;68.75;53.50;;;;;12.01;64.96;103392.63;5045314;28;49819;-71
2021/12/16 11:09:41;;;;;;;;;55.25;44.25;;;;;13.07;65.34;103561.91;5059843;28;50604;-71
2021/12/16 11:12:25;;;;;;;;;56.00;46.00;;;;;13.12;64.05;103560.41;5071598;28;50015;-71
2021/12/16 11:14:57;;;;;;;;;45.25;39.50;;;;;12.29;62.92;103437.22;5071759;28;50033;-72
2021/12/16 11:17:25;;;;;;;;;54.50;43.25;;;;;11.82;63.14;103376.59;5064349;28;49614;-72
2021/12/16 11:19:56;;;;;;;;;45.00;37.50;;;;;13.12;63.00;103573.59;5040231;28;50870;-71
2021/12/16 11:22:31;;;;;;;;;36.25;34.00;;;;;12.92;62.37;103553.13;5035236;28;49663;-71
2021/12/16 11:24:57;;;;;;;;;36.75;32.00;;;;;13.11;62.13;103567.41;5034868;28;49942;-72
2021/12/16 11:27:32;;;;;;;;;36.25;34.25;;;;;12.68;62.39;103519.31;5038853;28;49906;-71
2021/12/16 11:30:16;;;;;;;;;38.75;35.00;;;;;13.22;61.91;103580.31;5033129;28;51043;-71
2021/12/16 11:32:47;;;;;;;;;40.00;36.25;;;;;12.05;61.56;103383.16;5036277;28;56836;-71
2021/12/16 11:35:31;;;;;;;;;37.25;31.25;;;;;11.76;61.62;103328.81;5046156;28;49985;-71
2021/12/16 11:38:03;;;;;;;;;35.00;32.75;;;;;12.60;60.26;103460.91;5051582;28;49927;-83
2021/12/16 11:40:50;;;;;;;;;31.50;30.50;;;;;12.63;60.98;103509.31;5034735;28;51380;-85
2021/12/16 11:43:16;;;;;;;;;37.75;33.25;;;;;12.98;60.40;103537.66;5040402;28;49963;-80
2021/12/16 11:45:41;;;;;;;;;27.75;27.75;;;;;13.15;60.42;103568.50;5039313;28;49766;-78
2021/12/16 11:48:08;;;;;;;;;84.33;71.33;;;;;13.12;60.81;103576.22;5051204;28;50064;-77
2021/12/16 11:50:40;;;;;;;;;32.50;32.00;;;;;13.00;60.66;103539.53;5050912;28;50684;-72
2021/12/16 11:53:05;;;;;;;;;33.00;30.50;;;;;13.11;61.16;103548.03;5051179;28;49861;-72
2021/12/16 11:55:36;;;;;;;;;36.25;33.25;;;;;13.05;60.37;103546.00;5051093;28;49861;-73
2021/12/16 11:58:03;;;;;;;;;36.75;30.50;;;;;13.13;60.30;103554.34;5016633;28;50019;-73
2021/12/16 12:00:40;;;;;;;;;37.75;34.50;;;;;13.18;60.39;103561.66;5050785;28;50884;-74
2021/12/16 12:03:14;;;;;;;;;32.50;31.25;;;;;13.00;60.69;103534.25;5050784;28;49910;-74
2021/12/16 12:05:47;;;;;;;;;33.25;31.50;;;;;12.80;60.09;103500.63;5032681;28;49919;-74
2021/12/16 12:08:14;;;;;;;;;35.00;32.25;;;;;13.20;60.43;103561.75;5050905;28;49593;-74
2021/12/16 12:10:44;;;;;;;;;33.00;29.25;;;;;13.20;60.00;103555.59;5050810;28;51121;-71
2021/12/16 12:13:14;;;;;;;;;37.50;31.50;;;;;13.14;60.09;103543.84;5050969;28;50006;-73
2021/12/16 12:15:51;;;;;;;;;28.50;26.75;;;;;13.17;60.31;103548.38;5050551;28;49881;-70
2021/12/16 12:18:41;;;;;;;;;29.75;27.75;;;;;13.21;59.73;103546.84;5043764;28;49994;-74
2021/12/16 12:21:33;;;;;;;;;32.75;32.50;;;;;12.97;59.78;103520.94;5049371;28;50532;-72
2021/12/16 12:24:17;;;;;;;;;32.75;28.00;;;;;13.01;59.76;103517.63;5050495;28;49715;-77
2021/12/16 12:26:48;;;;;;;;;34.25;29.25;;;;;13.08;60.40;103538.22;5032336;28;49608;-74
2021/12/16 12:29:24;;;;;;;;;32.00;30.75;;;;;13.13;59.73;103544.69;5032572;28;50010;-75
2021/12/16 12:31:55;;;;;;;;;38.00;33.50;;;;;13.21;60.11;103545.09;5032183;28;51989;-75
2021/12/16 12:34:21;;;;;;;;;33.00;31.25;;;;;13.22;59.68;103541.69;5032287;28;49783;-73
2021/12/16 12:36:50;;;;;;;;;45.75;34.00;;;;;13.24;59.57;103542.66;5050156;28;49851;-74
2021/12/16 12:39:23;;;;;;;;;33.75;33.00;;;;;13.14;60.37;103533.31;5050409;28;49917;-73
2021/12/16 12:41:49;;;;;;;;;40.25;32.25;;;;;13.22;59.66;103543.38;5031659;28;50020;-73
2021/12/16 12:44:15;;;;;;;;;33.75;31.25;;;;;12.93;59.52;103503.09;5050363;28;49632;-74
2021/12/16 12:46:42;;;;;;;;;39.00;32.00;;;;;12.94;59.59;103497.03;5050284;28;50013;-75
2021/12/16 12:49:12;;;;;;;;;36.50;31.00;;;;;13.20;59.93;103534.47;5050976;28;49914;-75
2021/12/16 12:51:42;;;;;;;;;36.00;31.25;;;;;13.22;59.29;103543.38;5050534;28;49846;-74
2021/12/16 12:54:26;;;;;;;;;33.00;30.00;;;;;13.22;59.23;103531.13;5050749;28;49878;-74
2021/12/16 12:56:55;;;;;;;;;35.50;31.25;;;;;12.88;59.45;103473.88;5054542;28;49884;-74
2021/12/16 12:59:34;;;;;;;;;27.00;25.00;;;;;13.24;58.87;103532.09;5063173;28;49709;-74
2021/12/16 13:01:59;;;;;;;;;30.00;28.75;;;;;13.22;59.16;103535.47;5032046;28;51712;-73
2021/12/16 13:04:28;;;;;;;;;34.25;28.50;;;;;13.25;59.21;103523.38;5050101;28;49733;-74
2021/12/16 13:07:05;;;;;;;;;26.75;24.00;;;;;13.26;59.12;103527.81;5050285;28;50053;-74
2021/12/16 13:09:53;;;;;;;;;33.25;31.75;;;;;12.96;59.26;103452.28;5050339;28;50184;-75
2021/12/16 13:12:21;;;;;;;;;33.25;30.50;;;;;13.34;59.18;103522.97;5049676;28;50248;-75
2021/12/16 13:14:50;;;;;;;;;29.50;26.25;;;;;13.35;58.89;103512.47;5052309;28;49806;-79
2021/12/16 13:23:37;;;;;;;;;27.50;24.50;;;;;13.04;58.30;103462.44;5054055;28;50189;-75
2021/12/16 13:29:13;;;;;;;;;24.50;23.50;;;;;13.08;58.19;103480.22;5053291;28;49814;-74
2021/12/16 13:32:05;;;;;;;;;32.25;25.25;;;;;13.16;58.64;103510.56;5036190;28;49707;-72
2021/12/16 13:34:50;;;;;;;;;27.25;24.00;;;;;13.16;58.98;103500.00;5034951;28;51338;-75
2021/12/16 13:37:43;;;;;;;;;27.75;24.00;;;;;13.19;58.91;103504.56;5053281;28;49557;-72
2021/12/16 13:40:19;;;;;;;;;28.25;26.25;;;;;13.14;58.93;103499.03;5044491;28;50060;-74
2021/12/16 13:42:48;;;;;;;;;31.00;27.75;;;;;12.75;58.45;103434.50;5057024;28;49845;-76
2021/12/16 13:45:27;;;;;;;;;23.50;21.25;;;;;13.04;58.58;103496.72;5034722;28;51412;-72
2021/12/16 14:02:48;;;;;;;;;23.00;21.25;;;;;13.01;59.21;103504.44;5052898;28;49607;-78
2021/12/16 14:05:33;;;;;;;;;30.75;27.00;;;;;12.89;59.27;103490.59;5052857;28;49781;-75
2021/12/16 14:08:04;;;;;;;;;33.50;28.00;;;;;12.99;59.34;103514.00;5052422;28;50086;-74
2021/12/16 14:10:43;;;;;;;;;22.00;20.50;;;;;13.00;59.14;103512.28;5053406;28;49798;-76
2021/12/16 14:35:54;;;;;;;;;26.75;25.00;;;;;12.67;61.02;103500.78;5052190;28;49807;-73
2021/12/16 14:41:13;;;;;;;;;26.00;25.25;;;;;12.38;61.16;103455.25;5051958;28;49944;-76
2021/12/16 14:44:07;;;;;;;;;27.75;26.25;;;;;12.70;61.45;103514.13;5033869;28;49758;-74
2021/12/16 14:46:35;;;;;;;;;29.50;29.50;;;;;12.53;61.89;103503.53;5035541;28;49887;-74